createdAt,value
2018-11-14T00:00:38.232Z,9.13
2018-11-14T00:03:05.425Z,9.37
2018-11-14T00:05:32.577Z,9.00
2018-11-14T00:07:59.745Z,9.77
2018-11-14T00:10:26.893Z,9.27
2018-11-14T00:12:54.065Z,7.93
2018-11-14T00:15:23.234Z,8.23
2018-11-14T00:17:51.081Z,8.47
2018-11-14T00:20:18.273Z,9.00
2018-11-14T00:22:46.427Z,9.10
2018-11-14T00:25:13.663Z,10.13
2018-11-14T00:27:40.868Z,10.07
2018-11-14T00:30:09.737Z,9.00
2018-11-14T00:32:36.906Z,8.73
2018-11-14T00:35:04.421Z,8.27
2018-11-14T00:37:31.551Z,8.07
2018-11-14T00:39:58.680Z,8.77
2018-11-14T00:42:25.915Z,8.23
2018-11-14T00:44:53.061Z,7.30
2018-11-14T00:47:20.531Z,8.20
2018-11-14T00:49:47.650Z,7.93
2018-11-14T00:52:14.792Z,7.97
2018-11-14T00:54:41.992Z,9.00
2018-11-14T00:57:09.165Z,8.87
2018-11-14T00:59:36.347Z,8.50
2018-11-14T01:02:03.689Z,7.23
2018-11-14T01:04:30.769Z,8.03
2018-11-14T01:06:57.897Z,8.17
2018-11-14T01:09:25.051Z,7.97
2018-11-14T01:11:52.220Z,7.40
2018-11-14T01:14:19.366Z,7.77
2018-11-14T01:16:46.508Z,7.40
2018-11-14T01:19:13.675Z,8.00
2018-11-14T01:21:40.892Z,8.57
2018-11-14T01:24:08.221Z,8.47
2018-11-14T01:26:35.576Z,8.40
2018-11-14T01:29:02.778Z,7.83
2018-11-14T01:31:30.082Z,8.23
2018-11-14T01:33:57.357Z,8.80
2018-11-14T01:36:24.497Z,10.17
2018-11-14T01:38:51.659Z,10.63
2018-11-14T01:41:18.816Z,9.53
2018-11-14T01:43:46.010Z,8.90
2018-11-14T01:46:13.153Z,8.50
2018-11-14T01:48:40.341Z,8.33
2018-11-14T01:51:07.499Z,8.90
2018-11-14T01:53:34.669Z,9.03
2018-11-14T01:56:01.834Z,9.57
2018-11-14T01:58:29.013Z,8.47
2018-11-14T02:00:56.225Z,8.43
2018-11-14T02:03:23.393Z,8.83
2018-11-14T02:05:50.524Z,8.57
2018-11-14T02:08:17.696Z,9.10
2018-11-14T02:10:44.860Z,9.87
2018-11-14T02:13:12.053Z,8.87
2018-11-14T02:15:39.254Z,9.53
2018-11-14T02:18:06.417Z,9.53
2018-11-14T02:20:33.561Z,8.50
2018-11-14T02:23:00.764Z,9.47
2018-11-14T02:25:27.944Z,8.97
2018-11-14T02:27:55.140Z,9.30
2018-11-14T02:30:23.101Z,7.60
2018-11-14T02:32:50.327Z,7.80
2018-11-14T02:35:17.559Z,9.17
2018-11-14T02:37:45.258Z,9.07
2018-11-14T02:40:14.658Z,8.60
2018-11-14T02:42:42.014Z,9.07
2018-11-14T02:45:09.783Z,9.17
2018-11-14T02:47:36.966Z,8.97
2018-11-14T02:50:04.472Z,10.00
2018-11-14T02:52:31.626Z,9.47
2018-11-14T02:54:58.843Z,8.87
2018-11-14T02:57:25.984Z,8.37
2018-11-14T02:59:53.593Z,8.33
2018-11-14T03:02:20.844Z,8.90
2018-11-14T03:04:47.982Z,8.43
2018-11-14T03:07:15.134Z,8.43
2018-11-14T03:09:42.304Z,7.73
2018-11-14T03:12:09.501Z,8.97
2018-11-14T03:14:36.578Z,8.67
2018-11-14T03:17:03.921Z,9.20
2018-11-14T03:19:31.085Z,8.47
2018-11-14T03:21:58.278Z,8.17
2018-11-14T03:24:25.457Z,8.40
2018-11-14T03:26:52.676Z,8.20
2018-11-14T03:29:19.903Z,7.80
2018-11-14T03:31:47.073Z,8.60
2018-11-14T03:34:14.258Z,8.47
2018-11-14T03:36:41.435Z,8.37
2018-11-14T03:39:08.904Z,8.33
2018-11-14T03:41:36.220Z,8.23
2018-11-14T03:44:03.667Z,9.10
2018-11-14T03:46:30.857Z,8.27
2018-11-14T03:48:58.039Z,9.27
2018-11-14T03:51:25.199Z,8.43
2018-11-14T03:53:52.384Z,7.87
2018-11-14T03:56:19.538Z,7.60
2018-11-14T03:58:46.697Z,8.83
2018-11-14T04:01:13.872Z,7.30
2018-11-14T04:03:41.040Z,7.20
2018-11-14T04:06:08.206Z,7.83
2018-11-14T04:08:35.367Z,7.73
2018-11-14T04:11:02.546Z,7.70
2018-11-14T04:13:29.716Z,8.07
2018-11-14T04:15:56.874Z,7.90
2018-11-14T04:18:24.058Z,7.53
2018-11-14T04:20:51.227Z,7.13
2018-11-14T04:23:18.406Z,7.87
2018-11-14T04:25:45.558Z,7.70
2018-11-14T04:28:12.746Z,8.60
2018-11-14T04:30:39.916Z,8.33
2018-11-14T04:33:07.094Z,8.07
2018-11-14T04:35:34.298Z,8.40
2018-11-14T04:38:01.462Z,9.17
2018-11-14T04:40:28.628Z,9.20
2018-11-14T04:42:55.809Z,10.43
2018-11-14T04:45:24.801Z,8.00
2018-11-14T04:47:52.043Z,9.23
2018-11-14T04:50:22.070Z,9.33
2018-11-14T04:52:49.833Z,9.27
2018-11-14T04:55:18.017Z,9.37
2018-11-14T04:57:45.469Z,8.73
2018-11-14T05:00:13.546Z,10.47
2018-11-14T05:02:41.894Z,9.33
2018-11-14T05:05:10.708Z,10.13
2018-11-14T05:07:38.198Z,10.47
2018-11-14T05:10:06.360Z,8.80
2018-11-14T05:12:33.520Z,9.40
2018-11-14T05:15:00.707Z,9.23
2018-11-14T05:17:27.877Z,9.63
2018-11-14T05:19:55.029Z,10.17
2018-11-14T05:22:22.200Z,9.77
2018-11-14T05:24:49.414Z,9.80
2018-11-14T05:27:16.529Z,10.20
2018-11-14T05:29:43.680Z,9.93
2018-11-14T05:32:10.847Z,9.23
2018-11-14T05:34:38.006Z,11.37
2018-11-14T05:37:05.177Z,11.70
2018-11-14T05:39:32.382Z,11.53
2018-11-14T05:41:59.544Z,12.67
2018-11-14T05:44:26.741Z,11.77
2018-11-14T05:46:53.904Z,11.77
2018-11-14T05:49:21.070Z,12.13
2018-11-14T05:51:48.241Z,12.87
2018-11-14T05:54:15.425Z,11.33
2018-11-14T05:56:42.594Z,12.23
2018-11-14T05:59:09.741Z,11.53
2018-11-14T06:01:36.880Z,11.60
2018-11-14T06:04:04.195Z,10.73
2018-11-14T06:06:31.366Z,11.20
2018-11-14T06:08:58.503Z,10.50
2018-11-14T06:11:25.673Z,9.27
2018-11-14T06:13:53.133Z,10.93
2018-11-14T06:16:20.292Z,10.43
2018-11-14T06:18:47.434Z,9.80
2018-11-14T06:21:14.604Z,10.47
2018-11-14T06:23:41.826Z,11.83
2018-11-14T06:26:08.921Z,11.10
2018-11-14T06:28:36.058Z,10.07
2018-11-14T06:31:03.354Z,9.47
2018-11-14T06:33:30.484Z,10.80
2018-11-14T06:35:57.641Z,10.30
2018-11-14T06:38:24.774Z,9.90
2018-11-14T06:40:51.944Z,9.70
2018-11-14T06:43:19.138Z,10.20
2018-11-14T06:45:46.300Z,9.43
2018-11-14T06:48:13.482Z,9.37
2018-11-14T06:50:40.628Z,9.90
2018-11-14T06:53:07.780Z,9.80
2018-11-14T06:55:34.937Z,10.17
2018-11-14T06:58:02.137Z,9.90
2018-11-14T07:00:30.510Z,9.00
2018-11-14T07:02:58.410Z,9.37
2018-11-14T07:05:25.596Z,9.90
2018-11-14T07:07:52.717Z,9.33
2018-11-14T07:10:21.453Z,9.00
2018-11-14T07:12:48.584Z,9.60
2018-11-14T07:15:16.800Z,8.93
2018-11-14T07:17:44.713Z,9.37
2018-11-14T07:20:14.090Z,9.37
2018-11-14T07:22:41.718Z,10.70
2018-11-14T07:25:08.956Z,10.00
2018-11-14T07:27:36.115Z,11.40
2018-11-14T07:30:03.657Z,10.33
2018-11-14T07:32:31.329Z,10.90
2018-11-14T07:34:58.513Z,10.33
2018-11-14T07:37:25.733Z,11.33
2018-11-14T07:39:52.881Z,9.57
2018-11-14T07:42:20.105Z,9.40
2018-11-14T07:44:47.269Z,9.20
2018-11-14T07:47:14.441Z,8.97
2018-11-14T07:49:41.601Z,10.13
2018-11-14T07:52:08.745Z,10.63
2018-11-14T07:54:35.928Z,9.47
2018-11-14T07:57:03.081Z,8.90
2018-11-14T07:59:30.210Z,9.30
2018-11-14T08:01:57.404Z,8.80
2018-11-14T08:04:24.520Z,8.53
2018-11-14T08:06:51.703Z,8.77
2018-11-14T08:09:18.845Z,9.47
2018-11-14T08:11:46.060Z,8.53
2018-11-14T08:14:13.253Z,8.43
2018-11-14T08:16:40.401Z,9.73
2018-11-14T08:19:07.534Z,8.43
2018-11-14T08:21:34.677Z,9.13
2018-11-14T08:24:01.853Z,8.43
2018-11-14T08:26:28.978Z,9.50
2018-11-14T08:28:56.149Z,9.33
2018-11-14T08:31:23.349Z,9.90
2018-11-14T08:33:50.489Z,9.17
2018-11-14T08:36:18.415Z,9.20
2018-11-14T08:38:45.619Z,8.83
2018-11-14T08:41:12.904Z,10.43
2018-11-14T08:43:40.067Z,9.93
2018-11-14T08:46:07.264Z,10.47
2018-11-14T08:48:34.430Z,9.90
2018-11-14T08:51:01.694Z,8.60
2018-11-14T08:53:28.888Z,8.73
2018-11-14T08:55:56.073Z,8.13
2018-11-14T08:58:23.311Z,7.93
2018-11-14T09:00:52.164Z,8.60
2018-11-14T09:03:19.330Z,8.50
2018-11-14T09:05:46.552Z,8.80
2018-11-14T09:08:13.838Z,11.33
2018-11-14T09:10:41.192Z,11.07
2018-11-14T09:13:12.163Z,11.40
2018-11-14T09:15:39.351Z,9.97
2018-11-14T09:18:06.582Z,10.23
2018-11-14T09:20:33.710Z,10.83
2018-11-14T09:23:00.980Z,10.67
2018-11-14T09:25:29.333Z,9.40
2018-11-14T09:27:56.750Z,9.00
2018-11-14T09:30:24.740Z,9.43
2018-11-14T09:32:51.914Z,10.00
2018-11-14T09:35:20.192Z,10.20
2018-11-14T09:37:47.380Z,9.07
2018-11-14T09:40:15.781Z,8.27
2018-11-14T09:42:42.968Z,7.87
2018-11-14T09:45:13.977Z,7.73
2018-11-14T09:47:41.341Z,8.03
2018-11-14T09:50:09.825Z,7.13
2018-11-14T09:52:37.270Z,7.00
2018-11-14T09:55:06.249Z,6.37
2018-11-14T09:57:33.412Z,6.67
2018-11-14T10:00:00.650Z,7.30
2018-11-14T10:02:27.917Z,7.67
2018-11-14T10:04:55.120Z,5.80
2018-11-14T10:07:22.325Z,6.80
2018-11-14T10:09:50.220Z,6.23
2018-11-14T10:12:17.506Z,6.47
2018-11-14T10:14:44.673Z,7.20
2018-11-14T10:17:11.881Z,7.00
2018-11-14T10:19:39.062Z,6.50
2018-11-14T10:22:06.244Z,6.37
2018-11-14T10:24:33.393Z,6.90
2018-11-14T10:27:00.564Z,6.43
2018-11-14T10:29:27.725Z,6.73
2018-11-14T10:31:54.867Z,6.87
2018-11-14T10:34:22.068Z,6.07
2018-11-14T10:36:49.248Z,6.53
2018-11-14T10:39:16.417Z,6.13
2018-11-14T10:41:43.601Z,6.10
2018-11-14T10:44:10.796Z,6.00
2018-11-14T10:46:37.963Z,6.37
2018-11-14T10:49:05.313Z,5.77
2018-11-14T10:51:32.497Z,6.83
2018-11-14T10:53:59.697Z,6.30
2018-11-14T10:56:26.848Z,6.00
2018-11-14T10:58:54.049Z,5.90
2018-11-14T11:01:27.037Z,6.60
2018-11-14T11:04:00.025Z,5.93
2018-11-14T11:06:34.845Z,6.50
2018-11-14T11:09:08.593Z,7.13
2018-11-14T11:11:41.561Z,7.20
2018-11-14T11:14:14.547Z,7.07
2018-11-14T11:16:47.916Z,7.47
2018-11-14T11:19:17.470Z,6.80
2018-11-14T11:21:45.237Z,7.00
2018-11-14T11:24:13.161Z,7.63
2018-11-14T11:26:40.328Z,8.17
2018-11-14T11:29:08.929Z,7.70
2018-11-14T11:31:36.113Z,7.73
2018-11-14T11:34:03.433Z,7.60
2018-11-14T11:36:30.564Z,7.07
2018-11-14T11:38:57.712Z,7.80
2018-11-14T11:41:25.179Z,7.53
2018-11-14T11:43:52.349Z,7.13
2018-11-14T11:46:19.478Z,8.50
2018-11-14T11:48:46.627Z,8.30
2018-11-14T11:51:13.830Z,7.93
2018-11-14T11:53:40.951Z,8.73
2018-11-14T11:56:08.135Z,7.47
2018-11-14T11:58:35.297Z,7.33
2018-11-14T12:01:02.485Z,8.30
2018-11-14T12:03:29.692Z,9.27
2018-11-14T12:05:56.910Z,10.03
2018-11-14T12:08:23.986Z,9.83
2018-11-14T12:10:51.197Z,9.27
2018-11-14T12:13:18.313Z,8.37
2018-11-14T12:15:45.457Z,10.13
2018-11-14T12:18:12.718Z,8.77
2018-11-14T12:20:39.899Z,7.87
2018-11-14T12:23:07.126Z,8.40
2018-11-14T12:25:34.320Z,8.43
2018-11-14T12:28:01.493Z,9.33
2018-11-14T12:30:28.716Z,9.30
2018-11-14T12:32:55.778Z,9.17
2018-11-14T12:35:22.972Z,7.97
2018-11-14T12:37:50.080Z,7.83
2018-11-14T12:40:17.253Z,7.97
2018-11-14T12:42:44.412Z,7.77
2018-11-14T12:45:12.904Z,9.00
2018-11-14T12:47:40.172Z,7.93
2018-11-14T12:50:07.943Z,7.50
2018-11-14T12:52:35.280Z,8.77
2018-11-14T12:55:02.617Z,8.77
2018-11-14T12:57:29.801Z,7.63
2018-11-14T12:59:57.028Z,8.47
2018-11-14T13:02:24.142Z,8.77
2018-11-14T13:04:51.290Z,8.53
2018-11-14T13:07:18.438Z,8.07
2018-11-14T13:09:45.605Z,8.13
2018-11-14T13:12:12.768Z,8.30
2018-11-14T13:14:39.949Z,8.60
2018-11-14T13:17:07.101Z,8.67
2018-11-14T13:19:34.280Z,7.90
2018-11-14T13:22:01.461Z,8.10
2018-11-14T13:24:28.649Z,8.17
2018-11-14T13:26:55.805Z,8.60
2018-11-14T13:29:23.808Z,7.87
2018-11-14T13:31:50.988Z,7.87
2018-11-14T13:34:18.364Z,7.77
2018-11-14T13:36:45.540Z,7.53
2018-11-14T13:39:12.717Z,7.50
2018-11-14T13:41:40.148Z,8.77
2018-11-14T13:44:07.298Z,7.53
2018-11-14T13:46:34.469Z,7.00
2018-11-14T13:49:01.753Z,7.10
2018-11-14T13:51:28.821Z,7.73
2018-11-14T13:53:56.057Z,8.60
2018-11-14T13:56:23.205Z,8.10
2018-11-14T13:58:50.373Z,7.70
2018-11-14T14:01:17.687Z,6.87
2018-11-14T14:03:44.797Z,7.37
2018-11-14T14:06:12.073Z,7.80
2018-11-14T14:08:39.223Z,7.60
2018-11-14T14:11:06.405Z,7.83
2018-11-14T14:13:36.689Z,7.83
2018-11-14T14:16:03.880Z,7.27
2018-11-14T14:18:31.062Z,8.50
2018-11-14T14:20:58.244Z,7.87
2018-11-14T14:23:25.395Z,7.93
2018-11-14T14:25:52.568Z,8.77
2018-11-14T14:28:19.733Z,8.43
2018-11-14T14:30:46.980Z,7.47
2018-11-14T14:33:14.072Z,8.43
2018-11-14T14:35:41.215Z,8.33
2018-11-14T14:38:08.417Z,8.30
2018-11-14T14:40:35.542Z,7.73
2018-11-14T14:43:02.719Z,7.40
2018-11-14T14:45:29.877Z,7.93
2018-11-14T14:47:57.003Z,8.07
2018-11-14T14:50:24.171Z,8.30
2018-11-14T14:52:51.315Z,8.80
2018-11-14T14:55:20.033Z,8.70
2018-11-14T14:57:47.589Z,8.67
2018-11-14T15:00:27.889Z,9.80
2018-11-14T15:02:55.058Z,9.07
2018-11-14T15:05:22.245Z,9.73
2018-11-14T15:07:49.395Z,10.10
2018-11-14T15:10:19.004Z,9.40
2018-11-14T15:12:46.172Z,9.57
2018-11-14T15:15:13.837Z,9.97
2018-11-14T15:17:41.189Z,9.23
2018-11-14T15:20:10.365Z,8.80
2018-11-14T15:22:37.570Z,8.63
2018-11-14T15:25:05.645Z,7.97
2018-11-14T15:27:32.810Z,8.20
2018-11-14T15:30:00.072Z,8.70
2018-11-14T15:32:27.241Z,8.17
2018-11-14T15:34:54.414Z,9.80
2018-11-14T15:37:21.572Z,8.70
2018-11-14T15:39:48.742Z,8.23
2018-11-14T15:42:15.955Z,8.80
2018-11-14T15:44:43.118Z,8.83
2018-11-14T15:47:10.286Z,10.40
2018-11-14T15:49:37.468Z,10.23
2018-11-14T15:52:05.262Z,11.27
2018-11-14T15:54:32.429Z,11.40
2018-11-14T15:56:59.600Z,10.20
2018-11-14T15:59:26.782Z,9.60
2018-11-14T16:01:53.949Z,9.83
2018-11-14T16:04:21.149Z,9.40
2018-11-14T16:06:48.617Z,9.50
2018-11-14T16:09:15.793Z,9.87
2018-11-14T16:11:42.953Z,8.87
2018-11-14T16:14:10.126Z,9.07
2018-11-14T16:16:37.275Z,8.90
2018-11-14T16:19:04.632Z,8.93
2018-11-14T16:21:31.792Z,9.53
2018-11-14T16:23:58.959Z,9.53
2018-11-14T16:26:26.129Z,9.73
2018-11-14T16:28:53.269Z,9.80
2018-11-14T16:31:20.433Z,10.47
2018-11-14T16:33:47.580Z,10.30
2018-11-14T16:36:14.726Z,13.70
2018-11-14T16:38:42.749Z,12.50
2018-11-14T16:41:09.904Z,11.47
2018-11-14T16:43:37.167Z,12.47
2018-11-14T16:46:04.345Z,13.83
2018-11-14T16:48:31.482Z,12.10
2018-11-14T16:50:58.641Z,11.63
2018-11-14T16:53:25.803Z,10.57
2018-11-14T16:55:53.013Z,12.87
2018-11-14T16:58:20.177Z,12.67
2018-11-14T17:00:47.357Z,12.10
2018-11-14T17:03:14.625Z,15.37
2018-11-14T17:05:41.854Z,15.57
2018-11-14T17:08:09.017Z,14.20
2018-11-14T17:10:36.253Z,14.20
2018-11-14T17:13:03.609Z,13.20
2018-11-14T17:15:30.965Z,12.73
2018-11-14T17:17:58.386Z,13.50
2018-11-14T17:20:26.043Z,13.30
2018-11-14T17:22:53.973Z,13.97
2018-11-14T17:25:21.223Z,14.57
2018-11-14T17:27:48.985Z,20.80
2018-11-14T17:30:18.417Z,18.80
2018-11-14T17:32:45.908Z,14.30
2018-11-14T17:35:13.790Z,14.47
2018-11-14T17:37:41.987Z,13.63
2018-11-14T17:40:11.924Z,16.63
2018-11-14T17:42:39.807Z,27.33
2018-11-14T17:45:09.298Z,15.30
2018-11-14T17:47:37.059Z,18.50
2018-11-14T17:50:06.072Z,14.00
2018-11-14T17:52:33.409Z,13.53
2018-11-14T17:55:00.821Z,14.67
2018-11-14T17:57:28.126Z,14.47
2018-11-14T17:59:55.402Z,14.13
2018-11-14T18:02:23.127Z,14.67
2018-11-14T18:04:50.341Z,15.50
2018-11-14T18:07:17.575Z,14.03
2018-11-14T18:09:44.702Z,17.93
2018-11-14T18:12:11.888Z,17.70
2018-11-14T18:14:39.077Z,16.50
2018-11-14T18:17:06.184Z,15.83
2018-11-14T18:19:33.483Z,16.20
2018-11-14T18:22:00.644Z,18.27
2018-11-14T18:24:27.806Z,18.13
2018-11-14T18:26:54.978Z,18.80
2018-11-14T18:29:22.191Z,16.13
2018-11-14T18:31:49.358Z,16.40
2018-11-14T18:34:16.533Z,17.83
2018-11-14T18:36:43.711Z,17.47
2018-11-14T18:39:12.719Z,17.10
2018-11-14T18:41:39.916Z,24.00
2018-11-14T18:44:07.113Z,21.20
2018-11-14T18:46:34.299Z,17.37
2018-11-14T18:49:01.477Z,18.77
2018-11-14T18:51:28.662Z,19.97
2018-11-14T18:53:55.810Z,19.13
2018-11-14T18:56:22.980Z,20.63
2018-11-14T18:58:50.154Z,18.53
2018-11-14T19:01:17.321Z,18.03
2018-11-14T19:03:44.538Z,18.47
2018-11-14T19:06:11.714Z,17.83
2018-11-14T19:08:38.902Z,17.77
2018-11-14T19:11:06.098Z,17.90
2018-11-14T19:13:33.260Z,20.50
2018-11-14T19:16:00.640Z,19.23
2018-11-14T19:18:27.851Z,18.77
2018-11-14T19:20:55.033Z,20.50
2018-11-14T19:23:22.509Z,20.17
2018-11-14T19:25:49.690Z,19.70
2018-11-14T19:28:16.873Z,18.97
2018-11-14T19:30:44.220Z,19.57
2018-11-14T19:33:11.244Z,19.70
2018-11-14T19:35:38.522Z,18.57
2018-11-14T19:38:05.705Z,19.73
2018-11-14T19:40:34.205Z,19.27
2018-11-14T19:43:02.602Z,19.73
2018-11-14T19:45:31.570Z,19.87
2018-11-14T19:47:58.785Z,19.57
2018-11-14T19:50:26.245Z,20.10
2018-11-14T19:52:53.653Z,19.27
2018-11-14T19:55:22.088Z,19.77
2018-11-14T19:57:50.307Z,19.73
2018-11-14T20:00:20.109Z,20.77
2018-11-14T20:02:47.313Z,19.20
2018-11-14T20:05:15.330Z,20.97
2018-11-14T20:07:42.520Z,20.90
2018-11-14T20:10:11.916Z,22.10
2018-11-14T20:12:39.144Z,19.93
2018-11-14T20:15:07.524Z,19.53
2018-11-14T20:17:34.692Z,21.00
2018-11-14T20:20:02.128Z,20.87
2018-11-14T20:22:29.301Z,20.43
2018-11-14T20:24:56.482Z,21.27
2018-11-14T20:27:23.664Z,20.87
2018-11-14T20:29:50.840Z,21.70
2018-11-14T20:32:18.034Z,20.67
2018-11-14T20:34:45.450Z,18.97
2018-11-14T20:37:12.665Z,19.30
2018-11-14T20:39:39.823Z,20.00
2018-11-14T20:42:07.085Z,18.87
2018-11-14T20:44:34.289Z,17.53
2018-11-14T20:47:01.477Z,20.03
2018-11-14T20:49:28.722Z,18.73
2018-11-14T20:51:55.897Z,18.40
2018-11-14T20:54:23.069Z,19.07
2018-11-14T20:56:50.252Z,18.70
2018-11-14T20:59:17.438Z,19.50
2018-11-14T21:01:45.696Z,19.63
2018-11-14T21:04:12.923Z,18.70
2018-11-14T21:06:40.112Z,19.60
2018-11-14T21:09:08.282Z,19.40
2018-11-14T21:11:35.502Z,18.60
2018-11-14T21:14:02.693Z,18.23
2018-11-14T21:16:29.879Z,18.13
2018-11-14T21:18:57.042Z,19.63
2018-11-14T21:21:24.367Z,18.90
2018-11-14T21:23:51.735Z,17.53
2018-11-14T21:26:18.916Z,19.17
2018-11-14T21:28:46.100Z,18.90
2018-11-14T21:31:13.266Z,18.07
2018-11-14T21:33:40.542Z,19.07
2018-11-14T21:36:07.718Z,17.40
2018-11-14T21:38:34.895Z,18.03
2018-11-14T21:41:02.061Z,18.40
2018-11-14T21:43:29.295Z,17.60
2018-11-14T21:45:56.408Z,17.73
2018-11-14T21:48:23.604Z,17.37
2018-11-14T21:50:50.851Z,18.17
2018-11-14T21:53:18.090Z,18.13
2018-11-14T21:55:45.221Z,18.57
2018-11-14T21:58:12.577Z,16.63
2018-11-14T22:00:40.291Z,16.40
2018-11-14T22:03:07.818Z,16.53
2018-11-14T22:05:35.307Z,16.80
2018-11-14T22:08:02.657Z,16.33
2018-11-14T22:10:29.837Z,16.33
2018-11-14T22:12:56.973Z,16.53
2018-11-14T22:15:25.191Z,15.50
2018-11-14T22:17:52.553Z,16.13
2018-11-14T22:20:21.131Z,16.67
2018-11-14T22:22:48.590Z,16.73
2018-11-14T22:25:17.066Z,15.57
2018-11-14T22:27:44.345Z,16.93
2018-11-14T22:30:14.534Z,15.97
2018-11-14T22:32:41.809Z,16.10
2018-11-14T22:35:10.551Z,15.70
2018-11-14T22:37:37.833Z,16.23
2018-11-14T22:40:07.613Z,16.10
2018-11-14T22:42:34.745Z,15.80
2018-11-14T22:45:01.933Z,15.80
2018-11-14T22:47:29.071Z,14.87
2018-11-14T22:49:56.221Z,15.67
2018-11-14T22:52:23.373Z,16.27
2018-11-14T22:54:50.533Z,16.53
2018-11-14T22:57:17.661Z,15.57
2018-11-14T22:59:44.817Z,15.23
2018-11-14T23:02:11.989Z,16.17
2018-11-14T23:04:39.109Z,14.83
2018-11-14T23:07:06.255Z,14.87
2018-11-14T23:09:33.400Z,15.70
2018-11-14T23:12:00.557Z,15.37
2018-11-14T23:14:27.724Z,15.33
2018-11-14T23:16:54.872Z,15.33
2018-11-14T23:19:22.061Z,15.63
2018-11-14T23:21:49.177Z,15.73
2018-11-14T23:24:16.340Z,15.13
2018-11-14T23:26:43.493Z,15.97
2018-11-14T23:29:10.660Z,16.23
2018-11-14T23:31:37.821Z,15.07
2018-11-14T23:34:05.103Z,16.20
2018-11-14T23:36:32.277Z,15.37
2018-11-14T23:38:59.440Z,15.10
2018-11-14T23:41:26.598Z,15.60
2018-11-14T23:43:53.776Z,17.17
2018-11-14T23:46:20.933Z,16.70
2018-11-14T23:48:48.134Z,16.53
2018-11-14T23:51:15.345Z,16.30
2018-11-14T23:53:42.525Z,16.97
2018-11-14T23:56:09.729Z,16.00
2018-11-14T23:58:36.887Z,16.27
